Du Bois, NE (68345)

2:44 PM CDT on April 28, 2017 (GMT -0500)
Farm community | | Change Station

Elev 1198 ft 39.86 °N, 96.03 °W | Updated 29 seconds ago

Overcast
Overcast
43.0 °F
Feels Like 41 °F
N
4.0
Wind Variable Wind from North

Today
High -- | Low -- °F
--% Chance of Precip.
Yesterday
High -- | Low -- °F
Precip. -- in
Pressure 29.73 in
Visibility 3.0 miles
Clouds Overcast 600 ft
Windchill 41 °F
Dew Point 42 °F
Humidity 98%
Rainfall 1.27 in
Snow Depth Not available.
6:27 AM 8:16 PM
Waxing Crescent, 8% visible
SPECI KFNB 281907Z AUTO 05012G19KT 3SM BR OVC006 07/06 A2973 RMK AO2 T00670061
Pressure 29.73 in
Visibility 3.0 miles
Clouds Overcast 600 ft
Windchill 41 °F
Dew Point 42 °F
Humidity 98%
Rainfall 1.27 in
Snow Depth Not available.
6:27 AM 8:16 PM
Waxing Crescent, 8% visible
SPECI KFNB 281907Z AUTO 05012G19KT 3SM BR OVC006 07/06 A2973 RMK AO2 T00670061

Get Severe Weather Alerts

Thanks for signing up!

Be on the lookout for a verification email in your inbox.

You'll start receiving the daily forecast at 8 AM.

×

10-Day Weather Forecast

Almanac

Astronomy

Apr. 28, 2017 Rise Set
Actual Time
Civil Twilight
Nautical Twilight
Astronomical Twilight
Moon
Length of Visible Light
Length of Day
Tomorrow will be .
, % of the Moon is Illuminated

Today's Extremes

State Highs State Lows

Community

WunderPhotos

WunderBlog® & News

Nearby

Air Quality

  Air Quality AQ Index Pollutant
Not available.

Snow Depth

Station Depth Elevation

Earthquake Activity

City Distance Mag. Time & Date
Minimum magnitude displayed is 2.5.

Coastal Water Temperatures

Place Temperature

Stations

Nearby Weather Stations

Station Location Temp. Windchill Dew Point Humidity Wind Precip. Elev Updated Type
                   

Watches & Warnings

There are currently no watches in effect.